sensor_id;sensor_type;location;lat;lon;timestamp;temperature;humidity
54264;DHT22;40178;53.042;6.406;2023-01-16T00:00:33;5.10;99.90
54264;DHT22;40178;53.042;6.406;2023-01-16T00:03:01;4.90;99.90
54264;DHT22;40178;53.042;6.406;2023-01-16T00:05:26;4.30;99.90
54264;DHT22;40178;53.042;6.406;2023-01-16T00:07:55;4.00;99.90
54264;DHT22;40178;53.042;6.406;2023-01-16T00:10:23;5.00;99.90
54264;DHT22;40178;53.042;6.406;2023-01-16T00:12:49;5.00;99.90
54264;DHT22;40178;53.042;6.406;2023-01-16T00:15:14;4.40;99.90
54264;DHT22;40178;53.042;6.406;2023-01-16T00:17:42;3.30;99.90
54264;DHT22;40178;53.042;6.406;2023-01-16T00:20:11;4.50;99.90
54264;DHT22;40178;53.042;6.406;2023-01-16T00:22:36;3.50;99.90
54264;DHT22;40178;53.042;6.406;2023-01-16T00:25:02;4.30;99.90
54264;DHT22;40178;53.042;6.406;2023-01-16T00:27:31;3.30;99.90
54264;DHT22;40178;53.042;6.406;2023-01-16T00:29:58;4.10;99.90
54264;DHT22;40178;53.042;6.406;2023-01-16T00:32:24;3.10;99.90
54264;DHT22;40178;53.042;6.406;2023-01-16T00:34:50;3.20;99.90
54264;DHT22;40178;53.042;6.406;2023-01-16T00:37:15;3.20;99.90
54264;DHT22;40178;53.042;6.406;2023-01-16T00:39:41;3.10;99.90
54264;DHT22;40178;53.042;6.406;2023-01-16T00:42:07;3.10;99.90
54264;DHT22;40178;53.042;6.406;2023-01-16T00:44:33;3.00;99.90
54264;DHT22;40178;53.042;6.406;2023-01-16T00:46:59;2.90;99.90
54264;DHT22;40178;53.042;6.406;2023-01-16T00:49:24;2.90;99.90
54264;DHT22;40178;53.042;6.406;2023-01-16T00:51:50;2.90;99.90
54264;DHT22;40178;53.042;6.406;2023-01-16T00:54:16;2.80;99.90
54264;DHT22;40178;53.042;6.406;2023-01-16T00:56:41;2.70;99.90
54264;DHT22;40178;53.042;6.406;2023-01-16T00:59:07;2.70;99.90
54264;DHT22;40178;53.042;6.406;2023-01-16T01:01:32;2.60;99.90
54264;DHT22;40178;53.042;6.406;2023-01-16T01:03:59;2.70;99.90
54264;DHT22;40178;53.042;6.406;2023-01-16T01:06:24;2.50;99.90
54264;DHT22;40178;53.042;6.406;2023-01-16T01:08:50;2.50;99.90
54264;DHT22;40178;53.042;6.406;2023-01-16T01:11:16;2.50;99.90
54264;DHT22;40178;53.042;6.406;2023-01-16T01:13:42;2.50;99.90
54264;DHT22;40178;53.042;6.406;2023-01-16T01:16:09;2.60;99.90
54264;DHT22;40178;53.042;6.406;2023-01-16T01:18:35;2.80;99.90
54264;DHT22;40178;53.042;6.406;2023-01-16T01:21:00;2.70;99.90
54264;DHT22;40178;53.042;6.406;2023-01-16T01:23:26;2.80;99.90
54264;DHT22;40178;53.042;6.406;2023-01-16T01:25:52;2.80;99.90
54264;DHT22;40178;53.042;6.406;2023-01-16T01:28:18;2.80;99.90
54264;DHT22;40178;53.042;6.406;2023-01-16T01:30:44;2.80;99.90
54264;DHT22;40178;53.042;6.406;2023-01-16T01:33:10;2.70;99.90
54264;DHT22;40178;53.042;6.406;2023-01-16T01:35:36;2.70;99.90
54264;DHT22;40178;53.042;6.406;2023-01-16T01:38:02;2.90;99.90
54264;DHT22;40178;53.042;6.406;2023-01-16T01:40:28;2.90;99.90
54264;DHT22;40178;53.042;6.406;2023-01-16T01:42:54;3.00;99.90
54264;DHT22;40178;53.042;6.406;2023-01-16T01:47:57;2.90;99.90
54264;DHT22;40178;53.042;6.406;2023-01-16T01:50:40;3.10;99.90
54264;DHT22;40178;53.042;6.406;2023-01-16T01:53:16;3.20;99.90
54264;DHT22;40178;53.042;6.406;2023-01-16T01:55:44;3.20;99.90
54264;DHT22;40178;53.042;6.406;2023-01-16T01:58:11;3.20;99.90
54264;DHT22;40178;53.042;6.406;2023-01-16T02:00:42;3.20;99.90
54264;DHT22;40178;53.042;6.406;2023-01-16T02:03:14;3.20;99.90
54264;DHT22;40178;53.042;6.406;2023-01-16T02:05:46;3.30;99.90
54264;DHT22;40178;53.042;6.406;2023-01-16T02:08:17;3.50;99.90
54264;DHT22;40178;53.042;6.406;2023-01-16T02:10:53;3.30;99.90
54264;DHT22;40178;53.042;6.406;2023-01-16T02:13:20;3.50;99.90
54264;DHT22;40178;53.042;6.406;2023-01-16T02:15:46;3.50;99.90
54264;DHT22;40178;53.042;6.406;2023-01-16T02:18:31;3.40;99.90
54264;DHT22;40178;53.042;6.406;2023-01-16T02:25:02;3.40;99.90
54264;DHT22;40178;53.042;6.406;2023-01-16T02:45:28;3.70;99.90
54264;DHT22;40178;53.042;6.406;2023-01-16T02:51:18;3.70;99.90
54264;DHT22;40178;53.042;6.406;2023-01-16T02:56:36;3.60;99.90
54264;DHT22;40178;53.042;6.406;2023-01-16T02:59:09;3.50;99.90
54264;DHT22;40178;53.042;6.406;2023-01-16T03:01:36;4.10;99.90
54264;DHT22;40178;53.042;6.406;2023-01-16T03:04:36;3.40;99.90
54264;DHT22;40178;53.042;6.406;2023-01-16T03:06:59;3.30;99.90
54264;DHT22;40178;53.042;6.406;2023-01-16T03:09:41;3.20;99.90
54264;DHT22;40178;53.042;6.406;2023-01-16T03:15:19;2.90;99.90
54264;DHT22;40178;53.042;6.406;2023-01-16T03:20:50;2.80;99.90
54264;DHT22;40178;53.042;6.406;2023-01-16T03:23:40;2.70;99.90
54264;DHT22;40178;53.042;6.406;2023-01-16T03:26:15;2.60;99.90
54264;DHT22;40178;53.042;6.406;2023-01-16T03:29:08;2.50;99.90
54264;DHT22;40178;53.042;6.406;2023-01-16T03:31:57;2.70;99.90
54264;DHT22;40178;53.042;6.406;2023-01-16T03:34:45;2.70;99.90
54264;DHT22;40178;53.042;6.406;2023-01-16T03:37:46;2.90;99.90
54264;DHT22;40178;53.042;6.406;2023-01-16T03:40:18;3.00;99.90
54264;DHT22;40178;53.042;6.406;2023-01-16T03:42:55;2.90;99.90
54264;DHT22;40178;53.042;6.406;2023-01-16T03:48:02;3.10;99.90
54264;DHT22;40178;53.042;6.406;2023-01-16T03:50:29;3.10;99.90
54264;DHT22;40178;53.042;6.406;2023-01-16T03:53:15;3.10;99.90
54264;DHT22;40178;53.042;6.406;2023-01-16T03:58:55;3.90;99.90
54264;DHT22;40178;53.042;6.406;2023-01-16T04:01:36;4.00;99.90
54264;DHT22;40178;53.042;6.406;2023-01-16T04:04:06;3.40;99.90
54264;DHT22;40178;53.042;6.406;2023-01-16T04:06:56;3.90;99.90
54264;DHT22;40178;53.042;6.406;2023-01-16T04:09:49;3.40;99.90
54264;DHT22;40178;53.042;6.406;2023-01-16T04:12:19;3.40;99.90
54264;DHT22;40178;53.042;6.406;2023-01-16T04:14:48;3.50;99.90
54264;DHT22;40178;53.042;6.406;2023-01-16T04:17:16;3.70;99.90
54264;DHT22;40178;53.042;6.406;2023-01-16T04:19:43;3.70;99.90
54264;DHT22;40178;53.042;6.406;2023-01-16T04:22:24;3.70;99.90
54264;DHT22;40178;53.042;6.406;2023-01-16T04:24:52;3.60;99.90
54264;DHT22;40178;53.042;6.406;2023-01-16T04:27:20;3.80;99.90
54264;DHT22;40178;53.042;6.406;2023-01-16T04:29:45;3.70;99.90
54264;DHT22;40178;53.042;6.406;2023-01-16T04:32:11;3.70;99.90
54264;DHT22;40178;53.042;6.406;2023-01-16T04:34:37;3.80;99.90
54264;DHT22;40178;53.042;6.406;2023-01-16T04:37:03;3.90;99.90
54264;DHT22;40178;53.042;6.406;2023-01-16T04:39:28;3.90;99.90
54264;DHT22;40178;53.042;6.406;2023-01-16T04:41:54;3.70;99.90
54264;DHT22;40178;53.042;6.406;2023-01-16T04:44:19;3.90;99.90
54264;DHT22;40178;53.042;6.406;2023-01-16T04:46:45;3.90;99.90
54264;DHT22;40178;53.042;6.406;2023-01-16T04:49:10;3.90;99.90
54264;DHT22;40178;53.042;6.406;2023-01-16T04:51:37;3.80;99.90
54264;DHT22;40178;53.042;6.406;2023-01-16T04:54:04;3.80;99.90
54264;DHT22;40178;53.042;6.406;2023-01-16T04:56:31;3.90;99.90
54264;DHT22;40178;53.042;6.406;2023-01-16T04:58:57;3.90;99.90
54264;DHT22;40178;53.042;6.406;2023-01-16T05:01:23;3.80;99.90
54264;DHT22;40178;53.042;6.406;2023-01-16T05:03:48;3.90;99.90
54264;DHT22;40178;53.042;6.406;2023-01-16T05:06:14;3.90;99.90
54264;DHT22;40178;53.042;6.406;2023-01-16T05:08:40;3.70;99.90
54264;DHT22;40178;53.042;6.406;2023-01-16T05:11:05;3.80;99.90
54264;DHT22;40178;53.042;6.406;2023-01-16T05:13:31;3.80;99.90
54264;DHT22;40178;53.042;6.406;2023-01-16T05:15:57;3.80;99.90
54264;DHT22;40178;53.042;6.406;2023-01-16T05:18:23;3.70;99.90
54264;DHT22;40178;53.042;6.406;2023-01-16T05:20:49;3.70;99.90
54264;DHT22;40178;53.042;6.406;2023-01-16T05:23:14;3.70;99.90
54264;DHT22;40178;53.042;6.406;2023-01-16T05:25:40;3.50;99.90
54264;DHT22;40178;53.042;6.406;2023-01-16T05:28:05;3.40;99.90
54264;DHT22;40178;53.042;6.406;2023-01-16T05:30:31;3.40;99.90
54264;DHT22;40178;53.042;6.406;2023-01-16T05:32:58;3.40;99.90
54264;DHT22;40178;53.042;6.406;2023-01-16T05:35:24;3.30;99.90
54264;DHT22;40178;53.042;6.406;2023-01-16T05:37:50;3.40;99.90
54264;DHT22;40178;53.042;6.406;2023-01-16T05:40:16;3.30;99.90
54264;DHT22;40178;53.042;6.406;2023-01-16T05:42:42;3.20;99.90
54264;DHT22;40178;53.042;6.406;2023-01-16T05:45:08;3.30;99.90
54264;DHT22;40178;53.042;6.406;2023-01-16T05:47:34;3.30;99.90
54264;DHT22;40178;53.042;6.406;2023-01-16T05:49:59;3.30;99.90
54264;DHT22;40178;53.042;6.406;2023-01-16T05:52:25;3.20;99.90
54264;DHT22;40178;53.042;6.406;2023-01-16T05:54:52;3.00;99.90
54264;DHT22;40178;53.042;6.406;2023-01-16T05:57:18;3.00;99.90
54264;DHT22;40178;53.042;6.406;2023-01-16T05:59:43;3.00;99.90
54264;DHT22;40178;53.042;6.406;2023-01-16T06:02:12;3.20;99.90
54264;DHT22;40178;53.042;6.406;2023-01-16T06:04:38;3.20;99.90
54264;DHT22;40178;53.042;6.406;2023-01-16T06:07:03;3.10;99.90
54264;DHT22;40178;53.042;6.406;2023-01-16T06:09:29;3.30;99.90
54264;DHT22;40178;53.042;6.406;2023-01-16T06:11:54;3.20;99.90
54264;DHT22;40178;53.042;6.406;2023-01-16T06:14:20;3.20;99.90
54264;DHT22;40178;53.042;6.406;2023-01-16T06:16:46;3.30;99.90
54264;DHT22;40178;53.042;6.406;2023-01-16T06:19:11;3.30;99.90
54264;DHT22;40178;53.042;6.406;2023-01-16T06:21:37;3.20;99.90
54264;DHT22;40178;53.042;6.406;2023-01-16T06:24:03;3.40;99.90
54264;DHT22;40178;53.042;6.406;2023-01-16T06:26:28;3.20;99.90
54264;DHT22;40178;53.042;6.406;2023-01-16T06:28:54;3.30;99.90
54264;DHT22;40178;53.042;6.406;2023-01-16T06:31:21;3.20;99.90
54264;DHT22;40178;53.042;6.406;2023-01-16T06:33:47;3.20;99.90
54264;DHT22;40178;53.042;6.406;2023-01-16T06:36:13;3.30;99.90
54264;DHT22;40178;53.042;6.406;2023-01-16T06:38:38;3.10;99.90
54264;DHT22;40178;53.042;6.406;2023-01-16T06:41:04;3.10;99.90
54264;DHT22;40178;53.042;6.406;2023-01-16T06:43:30;3.00;99.90
54264;DHT22;40178;53.042;6.406;2023-01-16T06:45:56;3.20;99.90
54264;DHT22;40178;53.042;6.406;2023-01-16T06:48:22;3.20;99.90
54264;DHT22;40178;53.042;6.406;2023-01-16T06:50:48;3.10;99.90
54264;DHT22;40178;53.042;6.406;2023-01-16T06:53:13;3.10;99.90
54264;DHT22;40178;53.042;6.406;2023-01-16T06:55:40;3.00;99.90
54264;DHT22;40178;53.042;6.406;2023-01-16T06:58:07;3.10;99.90
54264;DHT22;40178;53.042;6.406;2023-01-16T07:00:33;3.10;99.90
54264;DHT22;40178;53.042;6.406;2023-01-16T07:03:00;3.20;99.90
54264;DHT22;40178;53.042;6.406;2023-01-16T07:05:28;3.10;99.90
54264;DHT22;40178;53.042;6.406;2023-01-16T07:07:54;3.00;99.90
54264;DHT22;40178;53.042;6.406;2023-01-16T07:10:20;3.00;99.90
54264;DHT22;40178;53.042;6.406;2023-01-16T07:12:47;3.00;99.90
54264;DHT22;40178;53.042;6.406;2023-01-16T07:15:13;3.00;99.90
54264;DHT22;40178;53.042;6.406;2023-01-16T07:17:58;3.10;99.90
54264;DHT22;40178;53.042;6.406;2023-01-16T07:20:47;3.00;99.90
54264;DHT22;40178;53.042;6.406;2023-01-16T07:23:35;3.10;99.90
54264;DHT22;40178;53.042;6.406;2023-01-16T07:26:02;2.90;99.90
54264;DHT22;40178;53.042;6.406;2023-01-16T07:28:31;3.00;99.90
54264;DHT22;40178;53.042;6.406;2023-01-16T07:30:57;3.00;99.90
54264;DHT22;40178;53.042;6.406;2023-01-16T07:33:23;3.00;99.90
54264;DHT22;40178;53.042;6.406;2023-01-16T07:35:49;3.00;99.90
54264;DHT22;40178;53.042;6.406;2023-01-16T07:38:15;2.90;99.90
54264;DHT22;40178;53.042;6.406;2023-01-16T07:40:41;3.00;99.90
54264;DHT22;40178;53.042;6.406;2023-01-16T07:43:06;2.90;99.90
54264;DHT22;40178;53.042;6.406;2023-01-16T07:45:32;2.90;99.90
54264;DHT22;40178;53.042;6.406;2023-01-16T07:47:57;3.00;99.90
54264;DHT22;40178;53.042;6.406;2023-01-16T07:50:25;3.00;99.90
54264;DHT22;40178;53.042;6.406;2023-01-16T07:52:51;3.00;99.90
54264;DHT22;40178;53.042;6.406;2023-01-16T07:55:16;3.00;99.90
54264;DHT22;40178;53.042;6.406;2023-01-16T07:57:42;4.00;99.90
54264;DHT22;40178;53.042;6.406;2023-01-16T08:00:09;2.90;99.90
54264;DHT22;40178;53.042;6.406;2023-01-16T08:02:36;3.10;99.90
54264;DHT22;40178;53.042;6.406;2023-01-16T08:05:02;3.10;99.90
54264;DHT22;40178;53.042;6.406;2023-01-16T08:07:28;3.00;99.90
54264;DHT22;40178;53.042;6.406;2023-01-16T08:09:53;3.10;99.90
54264;DHT22;40178;53.042;6.406;2023-01-16T08:12:19;4.50;99.90
54264;DHT22;40178;53.042;6.406;2023-01-16T08:14:45;3.00;99.90
54264;DHT22;40178;53.042;6.406;2023-01-16T08:17:10;3.00;99.90
54264;DHT22;40178;53.042;6.406;2023-01-16T08:19:36;3.10;99.90
54264;DHT22;40178;53.042;6.406;2023-01-16T08:22:01;3.20;99.90
54264;DHT22;40178;53.042;6.406;2023-01-16T08:24:28;3.20;99.90
54264;DHT22;40178;53.042;6.406;2023-01-16T08:26:54;3.20;99.90
54264;DHT22;40178;53.042;6.406;2023-01-16T08:29:20;3.20;99.90
54264;DHT22;40178;53.042;6.406;2023-01-16T08:31:46;3.20;99.90
54264;DHT22;40178;53.042;6.406;2023-01-16T08:34:11;3.20;99.90
54264;DHT22;40178;53.042;6.406;2023-01-16T08:36:37;3.30;99.90
54264;DHT22;40178;53.042;6.406;2023-01-16T08:39:02;3.40;99.90
54264;DHT22;40178;53.042;6.406;2023-01-16T08:41:28;3.40;99.90
54264;DHT22;40178;53.042;6.406;2023-01-16T08:44:12;3.20;99.90
54264;DHT22;40178;53.042;6.406;2023-01-16T08:47:22;3.40;99.90
54264;DHT22;40178;53.042;6.406;2023-01-16T08:50:11;3.50;99.90
54264;DHT22;40178;53.042;6.406;2023-01-16T08:52:56;3.40;99.90
54264;DHT22;40178;53.042;6.406;2023-01-16T08:55:22;3.50;99.90
54264;DHT22;40178;53.042;6.406;2023-01-16T08:57:47;3.50;99.90
54264;DHT22;40178;53.042;6.406;2023-01-16T09:00:13;3.50;99.90
54264;DHT22;40178;53.042;6.406;2023-01-16T09:02:39;3.50;99.90
54264;DHT22;40178;53.042;6.406;2023-01-16T09:05:05;3.60;99.90
54264;DHT22;40178;53.042;6.406;2023-01-16T09:07:31;3.60;99.90
54264;DHT22;40178;53.042;6.406;2023-01-16T09:09:56;3.60;99.90
54264;DHT22;40178;53.042;6.406;2023-01-16T09:12:22;3.60;99.90
54264;DHT22;40178;53.042;6.406;2023-01-16T09:15:07;3.60;99.90
54264;DHT22;40178;53.042;6.406;2023-01-16T09:17:32;3.60;99.90
54264;DHT22;40178;53.042;6.406;2023-01-16T09:19:58;3.60;99.90
54264;DHT22;40178;53.042;6.406;2023-01-16T09:22:26;3.60;99.90
54264;DHT22;40178;53.042;6.406;2023-01-16T09:24:52;3.70;99.90
54264;DHT22;40178;53.042;6.406;2023-01-16T09:27:18;3.60;99.90
54264;DHT22;40178;53.042;6.406;2023-01-16T09:29:45;3.70;99.90
54264;DHT22;40178;53.042;6.406;2023-01-16T09:32:11;3.70;99.90
54264;DHT22;40178;53.042;6.406;2023-01-16T09:34:38;3.70;99.90
54264;DHT22;40178;53.042;6.406;2023-01-16T09:37:07;3.80;99.90
54264;DHT22;40178;53.042;6.406;2023-01-16T09:39:32;3.70;99.90
54264;DHT22;40178;53.042;6.406;2023-01-16T09:44:59;3.80;99.90
54264;DHT22;40178;53.042;6.406;2023-01-16T09:47:26;3.80;99.90
54264;DHT22;40178;53.042;6.406;2023-01-16T09:49:58;3.70;99.90
54264;DHT22;40178;53.042;6.406;2023-01-16T09:52:28;3.80;99.90
54264;DHT22;40178;53.042;6.406;2023-01-16T09:55:40;3.90;99.90
54264;DHT22;40178;53.042;6.406;2023-01-16T09:58:24;3.80;99.90
54264;DHT22;40178;53.042;6.406;2023-01-16T10:01:08;3.80;99.90
54264;DHT22;40178;53.042;6.406;2023-01-16T10:03:35;3.90;99.90
54264;DHT22;40178;53.042;6.406;2023-01-16T10:06:24;3.90;99.90
54264;DHT22;40178;53.042;6.406;2023-01-16T10:17:22;4.00;99.90
54264;DHT22;40178;53.042;6.406;2023-01-16T10:27:42;3.90;99.90
54264;DHT22;40178;53.042;6.406;2023-01-16T10:30:23;3.90;99.90
54264;DHT22;40178;53.042;6.406;2023-01-16T10:35:24;4.00;99.90
54264;DHT22;40178;53.042;6.406;2023-01-16T10:37:51;3.90;99.90
54264;DHT22;40178;53.042;6.406;2023-01-16T10:40:23;3.90;99.90
54264;DHT22;40178;53.042;6.406;2023-01-16T10:43:01;3.90;99.90
54264;DHT22;40178;53.042;6.406;2023-01-16T10:45:46;3.80;99.90
54264;DHT22;40178;53.042;6.406;2023-01-16T10:48:32;3.80;99.90
54264;DHT22;40178;53.042;6.406;2023-01-16T10:51:16;3.80;99.90
54264;DHT22;40178;53.042;6.406;2023-01-16T10:53:42;3.80;99.90
54264;DHT22;40178;53.042;6.406;2023-01-16T10:56:09;3.70;99.90
54264;DHT22;40178;53.042;6.406;2023-01-16T10:58:37;3.70;99.90
54264;DHT22;40178;53.042;6.406;2023-01-16T11:01:14;3.60;99.90
54264;DHT22;40178;53.042;6.406;2023-01-16T11:03:45;3.60;99.90
54264;DHT22;40178;53.042;6.406;2023-01-16T11:06:14;3.70;99.90
54264;DHT22;40178;53.042;6.406;2023-01-16T11:08:42;3.60;99.90
54264;DHT22;40178;53.042;6.406;2023-01-16T11:11:11;3.50;99.90
54264;DHT22;40178;53.042;6.406;2023-01-16T11:13:58;3.60;99.90
54264;DHT22;40178;53.042;6.406;2023-01-16T11:16:43;3.60;99.90
54264;DHT22;40178;53.042;6.406;2023-01-16T11:19:28;3.50;99.90
54264;DHT22;40178;53.042;6.406;2023-01-16T11:21:57;3.50;99.90
54264;DHT22;40178;53.042;6.406;2023-01-16T11:24:34;3.40;99.90
54264;DHT22;40178;53.042;6.406;2023-01-16T11:27:05;3.40;99.90
54264;DHT22;40178;53.042;6.406;2023-01-16T11:29:39;3.40;99.90
54264;DHT22;40178;53.042;6.406;2023-01-16T11:32:11;3.50;99.90
54264;DHT22;40178;53.042;6.406;2023-01-16T11:34:39;3.40;99.90
54264;DHT22;40178;53.042;6.406;2023-01-16T11:37:12;3.40;99.90
54264;DHT22;40178;53.042;6.406;2023-01-16T11:39:40;3.40;99.90
54264;DHT22;40178;53.042;6.406;2023-01-16T11:42:11;3.40;99.90
54264;DHT22;40178;53.042;6.406;2023-01-16T11:44:57;3.40;99.90
54264;DHT22;40178;53.042;6.406;2023-01-16T11:47:44;3.40;99.90
54264;DHT22;40178;53.042;6.406;2023-01-16T11:50:41;3.40;99.90
54264;DHT22;40178;53.042;6.406;2023-01-16T11:53:12;3.40;99.90
54264;DHT22;40178;53.042;6.406;2023-01-16T11:56:18;3.50;99.90
54264;DHT22;40178;53.042;6.406;2023-01-16T12:04:29;3.50;99.90
54264;DHT22;40178;53.042;6.406;2023-01-16T12:07:17;3.50;99.90
54264;DHT22;40178;53.042;6.406;2023-01-16T12:09:55;3.70;99.90
54264;DHT22;40178;53.042;6.406;2023-01-16T12:12:35;3.60;99.90
54264;DHT22;40178;53.042;6.406;2023-01-16T12:18:17;3.60;99.90
54264;DHT22;40178;53.042;6.406;2023-01-16T12:24:06;3.70;99.90
54264;DHT22;40178;53.042;6.406;2023-01-16T12:32:38;3.80;99.90
54264;DHT22;40178;53.042;6.406;2023-01-16T12:35:14;3.70;99.90
54264;DHT22;40178;53.042;6.406;2023-01-16T12:43:31;3.70;99.90
54264;DHT22;40178;53.042;6.406;2023-01-16T12:46:00;3.80;99.90
54264;DHT22;40178;53.042;6.406;2023-01-16T12:59:28;4.00;99.90
54264;DHT22;40178;53.042;6.406;2023-01-16T13:02:23;4.00;99.90
54264;DHT22;40178;53.042;6.406;2023-01-16T13:04:58;4.00;99.90
54264;DHT22;40178;53.042;6.406;2023-01-16T13:07:29;3.90;99.90
54264;DHT22;40178;53.042;6.406;2023-01-16T13:12:45;4.00;99.90
54264;DHT22;40178;53.042;6.406;2023-01-16T13:15:36;4.00;99.90
54264;DHT22;40178;53.042;6.406;2023-01-16T13:18:23;4.00;99.90
54264;DHT22;40178;53.042;6.406;2023-01-16T13:20:57;4.00;99.90
54264;DHT22;40178;53.042;6.406;2023-01-16T13:23:32;4.10;99.90
54264;DHT22;40178;53.042;6.406;2023-01-16T13:26:03;4.10;99.90
54264;DHT22;40178;53.042;6.406;2023-01-16T13:28:43;4.00;99.90
54264;DHT22;40178;53.042;6.406;2023-01-16T13:34:19;4.10;99.90
54264;DHT22;40178;53.042;6.406;2023-01-16T13:42:26;4.20;99.90
54264;DHT22;40178;53.042;6.406;2023-01-16T13:45:00;4.20;99.90
54264;DHT22;40178;53.042;6.406;2023-01-16T13:47:49;4.30;99.90
54264;DHT22;40178;53.042;6.406;2023-01-16T13:50:31;4.20;99.90
54264;DHT22;40178;53.042;6.406;2023-01-16T13:53:00;4.20;99.90
54264;DHT22;40178;53.042;6.406;2023-01-16T13:55:33;4.30;99.90
54264;DHT22;40178;53.042;6.406;2023-01-16T14:00:34;4.30;99.90
54264;DHT22;40178;53.042;6.406;2023-01-16T14:03:18;4.20;99.90
54264;DHT22;40178;53.042;6.406;2023-01-16T14:05:47;4.20;99.90
54264;DHT22;40178;53.042;6.406;2023-01-16T14:17:27;4.30;99.90
54264;DHT22;40178;53.042;6.406;2023-01-16T14:22:21;4.40;99.90
54264;DHT22;40178;53.042;6.406;2023-01-16T14:24:51;4.30;99.90
54264;DHT22;40178;53.042;6.406;2023-01-16T14:27:21;4.40;99.90
54264;DHT22;40178;53.042;6.406;2023-01-16T14:29:55;4.40;99.90
54264;DHT22;40178;53.042;6.406;2023-01-16T14:32:26;4.50;99.90
54264;DHT22;40178;53.042;6.406;2023-01-16T14:34:59;4.40;99.90
54264;DHT22;40178;53.042;6.406;2023-01-16T14:37:27;4.50;99.90
54264;DHT22;40178;53.042;6.406;2023-01-16T14:39:59;4.40;99.90
54264;DHT22;40178;53.042;6.406;2023-01-16T14:42:52;4.40;99.90
54264;DHT22;40178;53.042;6.406;2023-01-16T14:45:39;4.40;99.90
54264;DHT22;40178;53.042;6.406;2023-01-16T14:56:48;4.40;99.90
54264;DHT22;40178;53.042;6.406;2023-01-16T14:59:24;4.50;99.90
54264;DHT22;40178;53.042;6.406;2023-01-16T15:02:00;4.40;99.90
54264;DHT22;40178;53.042;6.406;2023-01-16T15:07:56;4.50;99.90
54264;DHT22;40178;53.042;6.406;2023-01-16T15:10:38;4.40;99.90
54264;DHT22;40178;53.042;6.406;2023-01-16T15:18:19;4.40;99.90
54264;DHT22;40178;53.042;6.406;2023-01-16T15:21:37;4.30;99.90
54264;DHT22;40178;53.042;6.406;2023-01-16T15:25:17;4.30;99.90
54264;DHT22;40178;53.042;6.406;2023-01-16T15:31:54;4.30;99.90
54264;DHT22;40178;53.042;6.406;2023-01-16T15:34:33;4.90;99.90
54264;DHT22;40178;53.042;6.406;2023-01-16T15:37:22;4.10;99.90
54264;DHT22;40178;53.042;6.406;2023-01-16T15:39:51;4.30;99.90
54264;DHT22;40178;53.042;6.406;2023-01-16T15:42:23;4.30;99.90
54264;DHT22;40178;53.042;6.406;2023-01-16T15:45:28;4.30;99.90
54264;DHT22;40178;53.042;6.406;2023-01-16T15:51:52;4.40;99.90
54264;DHT22;40178;53.042;6.406;2023-01-16T15:54:18;4.40;99.90
54264;DHT22;40178;53.042;6.406;2023-01-16T15:56:44;4.40;99.90
54264;DHT22;40178;53.042;6.406;2023-01-16T15:59:25;4.40;99.90
54264;DHT22;40178;53.042;6.406;2023-01-16T16:01:52;4.40;99.90
54264;DHT22;40178;53.042;6.406;2023-01-16T16:04:19;4.40;99.90
54264;DHT22;40178;53.042;6.406;2023-01-16T16:06:46;4.30;99.90
54264;DHT22;40178;53.042;6.406;2023-01-16T16:09:20;4.50;99.90
54264;DHT22;40178;53.042;6.406;2023-01-16T16:11:47;4.50;99.90
54264;DHT22;40178;53.042;6.406;2023-01-16T16:17:22;4.50;99.90
54264;DHT22;40178;53.042;6.406;2023-01-16T16:20:36;4.60;99.90
54264;DHT22;40178;53.042;6.406;2023-01-16T16:23:16;4.60;99.90
54264;DHT22;40178;53.042;6.406;2023-01-16T16:28:22;4.60;99.90
54264;DHT22;40178;53.042;6.406;2023-01-16T16:31:13;4.50;99.90
54264;DHT22;40178;53.042;6.406;2023-01-16T16:33:40;4.60;99.90
54264;DHT22;40178;53.042;6.406;2023-01-16T16:36:07;4.50;99.90
54264;DHT22;40178;53.042;6.406;2023-01-16T16:44:00;4.50;99.90
54264;DHT22;40178;53.042;6.406;2023-01-16T16:46:31;4.50;99.90
54264;DHT22;40178;53.042;6.406;2023-01-16T16:49:25;4.50;99.90
54264;DHT22;40178;53.042;6.406;2023-01-16T16:51:43;4.50;99.90
54264;DHT22;40178;53.042;6.406;2023-01-16T16:54:16;4.40;99.90
54264;DHT22;40178;53.042;6.406;2023-01-16T16:56:54;4.40;99.90
54264;DHT22;40178;53.042;6.406;2023-01-16T16:59:27;4.40;99.90
54264;DHT22;40178;53.042;6.406;2023-01-16T17:01:57;4.30;99.90
54264;DHT22;40178;53.042;6.406;2023-01-16T17:04:29;4.30;99.90
54264;DHT22;40178;53.042;6.406;2023-01-16T17:06:55;4.40;99.90
54264;DHT22;40178;53.042;6.406;2023-01-16T17:09:20;4.40;99.90
54264;DHT22;40178;53.042;6.406;2023-01-16T17:11:47;4.40;99.90
54264;DHT22;40178;53.042;6.406;2023-01-16T17:14:13;4.30;99.90
54264;DHT22;40178;53.042;6.406;2023-01-16T17:16:39;4.30;99.90
54264;DHT22;40178;53.042;6.406;2023-01-16T17:19:19;4.30;99.90
54264;DHT22;40178;53.042;6.406;2023-01-16T17:21:47;4.40;99.90
54264;DHT22;40178;53.042;6.406;2023-01-16T17:24:17;4.20;99.90
54264;DHT22;40178;53.042;6.406;2023-01-16T17:26:43;4.40;99.90
54264;DHT22;40178;53.042;6.406;2023-01-16T17:29:09;4.30;99.90
54264;DHT22;40178;53.042;6.406;2023-01-16T17:31:37;4.20;99.90
54264;DHT22;40178;53.042;6.406;2023-01-16T17:34:03;4.20;99.90
54264;DHT22;40178;53.042;6.406;2023-01-16T17:36:28;4.30;99.90
54264;DHT22;40178;53.042;6.406;2023-01-16T17:38:54;4.40;99.90
54264;DHT22;40178;53.042;6.406;2023-01-16T17:41:22;4.30;99.90
54264;DHT22;40178;53.042;6.406;2023-01-16T17:43:49;4.30;99.90
54264;DHT22;40178;53.042;6.406;2023-01-16T17:46:33;4.20;99.90
54264;DHT22;40178;53.042;6.406;2023-01-16T17:48:59;4.30;99.90
54264;DHT22;40178;53.042;6.406;2023-01-16T17:51:25;4.30;99.90
54264;DHT22;40178;53.042;6.406;2023-01-16T17:53:53;4.30;99.90
54264;DHT22;40178;53.042;6.406;2023-01-16T17:56:20;4.20;99.90
54264;DHT22;40178;53.042;6.406;2023-01-16T17:58:47;4.30;99.90
54264;DHT22;40178;53.042;6.406;2023-01-16T18:01:29;4.20;99.90
54264;DHT22;40178;53.042;6.406;2023-01-16T18:03:57;5.40;99.90
54264;DHT22;40178;53.042;6.406;2023-01-16T18:06:23;4.30;99.90
54264;DHT22;40178;53.042;6.406;2023-01-16T18:08:54;4.20;99.90
54264;DHT22;40178;53.042;6.406;2023-01-16T18:11:20;4.40;99.90
54264;DHT22;40178;53.042;6.406;2023-01-16T18:14:05;4.30;99.90
54264;DHT22;40178;53.042;6.406;2023-01-16T18:16:49;4.20;99.90
54264;DHT22;40178;53.042;6.406;2023-01-16T18:19:33;4.20;99.90
54264;DHT22;40178;53.042;6.406;2023-01-16T18:21:59;4.20;99.90
54264;DHT22;40178;53.042;6.406;2023-01-16T18:24:37;4.40;99.90
54264;DHT22;40178;53.042;6.406;2023-01-16T18:27:07;4.30;99.90
54264;DHT22;40178;53.042;6.406;2023-01-16T18:29:33;4.40;99.90
54264;DHT22;40178;53.042;6.406;2023-01-16T18:31:59;4.30;99.90
54264;DHT22;40178;53.042;6.406;2023-01-16T18:34:44;4.30;99.90
54264;DHT22;40178;53.042;6.406;2023-01-16T18:37:11;4.40;99.90
54264;DHT22;40178;53.042;6.406;2023-01-16T18:39:37;4.30;99.90
54264;DHT22;40178;53.042;6.406;2023-01-16T18:42:21;4.40;99.90
54264;DHT22;40178;53.042;6.406;2023-01-16T18:45:06;4.40;99.90
54264;DHT22;40178;53.042;6.406;2023-01-16T18:47:51;4.30;99.90
54264;DHT22;40178;53.042;6.406;2023-01-16T18:50:42;4.40;99.90
54264;DHT22;40178;53.042;6.406;2023-01-16T18:53:29;4.30;99.90